createdAt,value
2017-08-22T00:02:21.739Z,9.87
2017-08-22T00:04:49.388Z,11.40
2017-08-22T00:07:17.048Z,12.13
2017-08-22T00:09:44.699Z,12.17
2017-08-22T00:12:12.379Z,11.37
2017-08-22T00:14:39.994Z,10.67
2017-08-22T00:17:07.626Z,10.70
2017-08-22T00:19:35.232Z,9.83
2017-08-22T00:22:02.854Z,11.50
2017-08-22T00:24:30.507Z,11.37
2017-08-22T00:26:58.141Z,11.17
2017-08-22T00:29:25.742Z,12.00
2017-08-22T00:31:53.346Z,11.33
2017-08-22T00:34:21.100Z,10.87
2017-08-22T00:36:48.711Z,11.10
2017-08-22T00:39:16.345Z,11.37
2017-08-22T00:41:43.971Z,12.17
2017-08-22T00:44:11.630Z,12.33
2017-08-22T00:46:39.248Z,12.70
2017-08-22T00:49:06.935Z,12.30
2017-08-22T00:51:34.622Z,12.17
2017-08-22T00:54:02.254Z,11.40
2017-08-22T00:56:29.967Z,11.80
2017-08-22T00:58:57.570Z,12.93
2017-08-22T01:01:25.203Z,13.90
2017-08-22T01:03:52.810Z,12.83
2017-08-22T01:06:20.481Z,13.13
2017-08-22T01:08:48.119Z,12.23
2017-08-22T01:11:15.723Z,12.67
2017-08-22T01:13:43.428Z,13.73
2017-08-22T01:16:11.065Z,15.20
2017-08-22T01:18:38.685Z,16.33
2017-08-22T01:21:06.312Z,16.87
2017-08-22T01:23:33.959Z,16.53
2017-08-22T01:26:01.552Z,16.10
2017-08-22T01:28:29.188Z,16.20
2017-08-22T01:30:56.887Z,14.00
2017-08-22T01:33:24.514Z,14.57
2017-08-22T01:35:52.169Z,14.47
2017-08-22T01:38:19.915Z,13.03
2017-08-22T01:40:47.561Z,15.27
2017-08-22T01:43:15.211Z,16.20
2017-08-22T01:45:42.878Z,12.90
2017-08-22T01:48:10.680Z,13.30
2017-08-22T01:50:38.280Z,14.30
2017-08-22T01:53:05.903Z,14.23
2017-08-22T01:55:33.509Z,15.10
2017-08-22T01:58:01.142Z,14.30
2017-08-22T02:00:28.773Z,14.27
2017-08-22T02:02:56.404Z,12.93
2017-08-22T02:05:24.001Z,13.53
2017-08-22T02:07:51.625Z,14.90
2017-08-22T02:10:19.304Z,13.33
2017-08-22T02:12:46.926Z,14.10
2017-08-22T02:15:14.552Z,15.13
2017-08-22T02:17:42.318Z,15.00
2017-08-22T02:20:09.956Z,15.70
2017-08-22T02:22:37.549Z,15.50
2017-08-22T02:25:05.183Z,16.27
2017-08-22T02:27:32.855Z,15.40
2017-08-22T02:30:00.483Z,15.50
2017-08-22T02:32:28.148Z,15.30
2017-08-22T02:34:55.790Z,17.17
2017-08-22T02:37:23.399Z,15.00
2017-08-22T02:39:51.069Z,13.43
2017-08-22T02:42:18.689Z,14.30
2017-08-22T02:44:46.293Z,15.43
2017-08-22T02:47:13.892Z,14.87
2017-08-22T02:49:41.563Z,15.10
2017-08-22T02:52:09.174Z,15.07
2017-08-22T02:54:37.551Z,13.10
2017-08-22T02:57:05.202Z,14.90
2017-08-22T02:59:32.839Z,13.87
2017-08-22T03:02:00.524Z,13.97
2017-08-22T03:04:28.138Z,14.20
2017-08-22T03:06:55.764Z,14.27
2017-08-22T03:09:23.386Z,13.50
2017-08-22T03:11:51.096Z,12.50
2017-08-22T03:14:18.709Z,13.77
2017-08-22T03:16:46.329Z,12.30
2017-08-22T03:19:13.955Z,12.40
2017-08-22T03:21:41.592Z,13.20
2017-08-22T03:24:09.266Z,12.03
2017-08-22T03:26:36.867Z,11.80
2017-08-22T03:29:04.524Z,13.20
2017-08-22T03:31:32.120Z,12.63
2017-08-22T03:33:59.778Z,14.67
2017-08-22T03:36:27.416Z,13.10
2017-08-22T03:38:55.073Z,13.20
2017-08-22T03:41:22.718Z,15.10
2017-08-22T03:43:50.300Z,12.47
2017-08-22T03:46:17.910Z,14.10
2017-08-22T03:48:45.506Z,11.37
2017-08-22T03:51:13.133Z,11.47
2017-08-22T03:53:40.724Z,11.67
2017-08-22T03:56:08.427Z,13.23
2017-08-22T03:58:36.017Z,11.77
2017-08-22T04:01:03.628Z,12.13
2017-08-22T04:03:31.228Z,9.80
2017-08-22T04:05:58.823Z,11.23
2017-08-22T04:08:26.419Z,10.57
2017-08-22T04:10:54.040Z,10.93
2017-08-22T04:13:21.684Z,10.73
2017-08-22T04:15:49.307Z,10.70
2017-08-22T04:18:16.896Z,10.60
2017-08-22T04:20:44.530Z,10.80
2017-08-22T04:23:12.117Z,11.27
2017-08-22T04:25:39.729Z,10.80
2017-08-22T04:28:07.401Z,10.53
2017-08-22T04:30:35.888Z,10.67
2017-08-22T04:33:03.498Z,10.77
2017-08-22T04:35:31.073Z,11.30
2017-08-22T04:37:58.691Z,11.07
2017-08-22T04:40:26.315Z,10.43
2017-08-22T04:42:53.902Z,11.23
2017-08-22T04:45:21.529Z,10.60
2017-08-22T04:47:49.111Z,10.60
2017-08-22T04:50:16.729Z,11.10
2017-08-22T04:52:44.312Z,11.87
2017-08-22T04:55:11.919Z,11.10
2017-08-22T04:57:39.499Z,11.77
2017-08-22T05:00:07.150Z,11.90
2017-08-22T05:02:34.810Z,10.23
2017-08-22T05:05:02.408Z,11.13
2017-08-22T05:07:29.988Z,11.27
2017-08-22T05:09:57.665Z,11.73
2017-08-22T05:12:25.251Z,12.70
2017-08-22T05:14:52.823Z,12.00
2017-08-22T05:17:20.436Z,12.50
2017-08-22T05:19:48.004Z,11.00
2017-08-22T05:22:15.630Z,12.43
2017-08-22T05:24:43.267Z,10.93
2017-08-22T05:27:10.848Z,10.83
2017-08-22T05:29:38.499Z,11.10
2017-08-22T05:32:06.219Z,11.90
2017-08-22T05:34:33.878Z,11.50
2017-08-22T05:37:01.459Z,11.20
2017-08-22T05:39:29.066Z,11.57
2017-08-22T05:41:56.683Z,12.27
2017-08-22T05:44:24.251Z,11.70
2017-08-22T05:46:53.567Z,11.10
2017-08-22T05:49:21.213Z,11.70
2017-08-22T05:51:48.826Z,13.13
2017-08-22T05:54:16.412Z,11.40
2017-08-22T05:56:44.002Z,11.70
2017-08-22T05:59:13.160Z,12.20
2017-08-22T06:01:40.801Z,11.63
2017-08-22T06:04:09.440Z,11.67
2017-08-22T06:06:37.055Z,10.77
2017-08-22T06:09:05.705Z,10.23
2017-08-22T06:11:33.570Z,11.50
2017-08-22T06:14:01.196Z,10.47
2017-08-22T06:16:28.786Z,12.57
2017-08-22T06:18:56.485Z,10.17
2017-08-22T06:21:24.080Z,10.43
2017-08-22T06:23:51.685Z,10.70
2017-08-22T06:26:28.315Z,11.23
2017-08-22T06:28:55.982Z,12.53
2017-08-22T06:31:23.629Z,12.00
2017-08-22T06:33:51.212Z,11.10
2017-08-22T06:36:18.843Z,11.70
2017-08-22T06:38:46.480Z,11.30
2017-08-22T06:41:14.072Z,10.90
2017-08-22T06:43:41.722Z,10.53
2017-08-22T06:46:09.298Z,10.70
2017-08-22T06:48:36.939Z,10.60
2017-08-22T06:51:04.534Z,10.13
2017-08-22T06:53:32.196Z,11.40
2017-08-22T06:55:59.789Z,9.43
2017-08-22T06:58:27.378Z,10.40
2017-08-22T07:00:55.033Z,10.23
2017-08-22T07:03:22.622Z,10.00
2017-08-22T07:05:50.219Z,8.87
2017-08-22T07:08:17.881Z,11.00
2017-08-22T07:10:45.524Z,9.10
2017-08-22T07:13:13.094Z,9.87
2017-08-22T07:15:40.716Z,9.53
2017-08-22T07:18:08.335Z,9.13
2017-08-22T07:20:35.933Z,8.63
2017-08-22T07:23:03.606Z,9.90
2017-08-22T07:25:31.189Z,9.23
2017-08-22T07:27:58.800Z,9.47
2017-08-22T07:30:26.396Z,8.47
2017-08-22T07:32:54.016Z,8.67
2017-08-22T07:35:22.800Z,9.77
2017-08-22T07:37:50.442Z,7.90
2017-08-22T07:40:18.089Z,8.13
2017-08-22T07:42:45.702Z,7.33
2017-08-22T07:45:13.413Z,6.93
2017-08-22T07:47:41.033Z,6.93
2017-08-22T07:50:08.676Z,7.40
2017-08-22T07:52:36.303Z,6.80
2017-08-22T07:55:03.915Z,7.00
2017-08-22T07:57:31.572Z,6.47
2017-08-22T07:59:59.193Z,7.00
2017-08-22T08:02:26.807Z,6.57
2017-08-22T08:04:54.415Z,6.53
2017-08-22T08:07:22.017Z,6.10
2017-08-22T08:09:49.623Z,5.40
2017-08-22T08:12:17.282Z,5.50
2017-08-22T08:14:44.913Z,5.70
2017-08-22T08:17:12.515Z,5.63
2017-08-22T08:19:40.153Z,5.50
2017-08-22T08:22:07.787Z,5.23
2017-08-22T08:24:35.406Z,5.40
2017-08-22T08:27:03.028Z,5.17
2017-08-22T08:29:30.665Z,5.30
2017-08-22T08:31:58.302Z,4.90
2017-08-22T08:34:25.893Z,4.63
2017-08-22T08:36:53.517Z,5.17
2017-08-22T08:39:21.199Z,5.70
2017-08-22T08:41:48.825Z,4.60
2017-08-22T08:44:16.410Z,5.60
2017-08-22T08:46:44.037Z,5.50
2017-08-22T08:49:11.645Z,5.20
2017-08-22T08:51:39.214Z,4.80
2017-08-22T08:54:06.817Z,5.07
2017-08-22T08:56:34.392Z,5.17
2017-08-22T08:59:02.018Z,5.67
2017-08-22T09:01:29.849Z,5.50
2017-08-22T09:03:58.776Z,5.70
2017-08-22T09:06:26.539Z,6.03
2017-08-22T09:08:54.379Z,5.70
2017-08-22T09:11:22.000Z,5.90
2017-08-22T09:13:49.755Z,6.50
2017-08-22T09:16:17.466Z,6.33
2017-08-22T09:18:45.202Z,5.97
2017-08-22T09:21:13.107Z,6.27
2017-08-22T09:23:40.770Z,5.95
2017-08-22T09:26:08.427Z,5.68
2017-08-22T09:28:36.064Z,6.65
2017-08-22T09:31:03.713Z,7.00
2017-08-22T09:33:31.301Z,6.17
2017-08-22T09:35:58.890Z,6.50
2017-08-22T09:38:26.525Z,6.28
2017-08-22T09:40:54.531Z,4.95
2017-08-22T09:43:22.141Z,5.50
2017-08-22T09:45:49.773Z,5.10
2017-08-22T09:48:17.381Z,4.87
2017-08-22T09:50:44.971Z,4.68
2017-08-22T09:53:12.632Z,4.30
2017-08-22T09:55:40.217Z,4.13
2017-08-22T09:58:07.846Z,3.80
2017-08-22T10:00:35.488Z,4.43
2017-08-22T10:03:03.163Z,4.50
2017-08-22T10:05:30.752Z,5.13
2017-08-22T10:07:58.368Z,4.30
2017-08-22T10:10:26.048Z,4.37
2017-08-22T10:12:53.638Z,4.70
2017-08-22T10:15:21.270Z,5.20
2017-08-22T10:18:25.912Z,4.40
2017-08-22T10:20:53.531Z,4.10
2017-08-22T10:23:21.110Z,3.67
2017-08-22T10:25:48.724Z,4.30
2017-08-22T10:28:16.330Z,4.20
2017-08-22T10:30:44.054Z,3.90
2017-08-22T10:33:11.684Z,4.30
2017-08-22T10:35:39.430Z,4.43
2017-08-22T10:38:07.023Z,3.90
2017-08-22T10:40:34.610Z,5.47
2017-08-22T10:43:02.284Z,4.40
2017-08-22T10:45:29.887Z,3.97
2017-08-22T10:47:57.497Z,4.10
2017-08-22T10:50:25.085Z,4.37
2017-08-22T10:52:52.745Z,3.47
2017-08-22T10:55:20.363Z,3.70
2017-08-22T10:57:47.966Z,4.17
2017-08-22T11:00:15.561Z,3.83
2017-08-22T11:02:43.168Z,3.43
2017-08-22T11:05:10.911Z,4.70
2017-08-22T11:07:38.530Z,3.90
2017-08-22T11:10:06.135Z,3.60
2017-08-22T11:12:33.712Z,3.70
2017-08-22T11:15:01.358Z,3.70
2017-08-22T11:17:28.935Z,4.50
2017-08-22T11:19:56.519Z,3.77
2017-08-22T11:22:24.184Z,4.03
2017-08-22T11:24:51.848Z,4.10
2017-08-22T11:27:19.461Z,3.40
2017-08-22T11:29:47.043Z,3.80
2017-08-22T11:32:14.686Z,3.73
2017-08-22T11:34:42.339Z,3.70
2017-08-22T11:37:10.057Z,3.70
2017-08-22T11:39:37.782Z,4.60
2017-08-22T11:42:05.633Z,4.20
2017-08-22T11:44:33.270Z,3.27
2017-08-22T11:47:00.941Z,3.97
2017-08-22T11:49:28.568Z,4.30
2017-08-22T11:51:56.139Z,4.07
2017-08-22T11:54:23.731Z,4.70
2017-08-22T11:56:51.366Z,3.90
2017-08-22T11:59:19.712Z,3.80
2017-08-22T12:01:47.305Z,2.73
2017-08-22T12:04:14.901Z,3.87
2017-08-22T12:06:42.508Z,3.57
2017-08-22T12:09:10.117Z,3.40
2017-08-22T12:11:37.722Z,3.63
2017-08-22T12:14:05.350Z,3.70
2017-08-22T12:16:32.975Z,3.50
2017-08-22T12:19:00.667Z,4.23
2017-08-22T12:21:28.281Z,3.50
2017-08-22T12:23:55.903Z,3.90
2017-08-22T12:26:23.554Z,3.47
2017-08-22T12:28:51.186Z,2.87
2017-08-22T12:31:18.792Z,3.33
2017-08-22T12:33:46.426Z,3.57
2017-08-22T12:36:14.074Z,3.53
2017-08-22T12:38:41.735Z,3.60
2017-08-22T12:41:09.399Z,3.47
2017-08-22T12:43:37.031Z,3.30
2017-08-22T12:46:04.652Z,4.43
2017-08-22T12:48:32.239Z,4.00
2017-08-22T12:50:59.898Z,3.53
2017-08-22T12:53:27.483Z,3.57
2017-08-22T12:55:55.123Z,3.80
2017-08-22T12:58:22.807Z,4.20
2017-08-22T13:00:50.435Z,3.83
2017-08-22T13:03:18.038Z,3.93
2017-08-22T13:05:45.662Z,3.53
2017-08-22T13:08:13.259Z,3.97
2017-08-22T13:10:40.907Z,3.90
2017-08-22T13:13:08.524Z,3.80
2017-08-22T13:15:36.181Z,3.80
2017-08-22T13:18:04.126Z,3.87
2017-08-22T13:20:31.713Z,4.57
2017-08-22T13:22:59.405Z,3.63
2017-08-22T13:25:27.007Z,3.53
2017-08-22T13:27:54.620Z,3.80
2017-08-22T13:30:22.217Z,4.30
2017-08-22T13:32:49.963Z,3.90
2017-08-22T13:35:17.608Z,3.87
2017-08-22T13:37:45.222Z,3.40
2017-08-22T13:40:12.885Z,3.50
2017-08-22T13:42:40.558Z,3.70
2017-08-22T13:45:08.165Z,3.97
2017-08-22T13:47:35.882Z,4.30
2017-08-22T13:50:03.464Z,3.43
2017-08-22T13:52:31.076Z,4.40
2017-08-22T13:54:58.678Z,4.30
2017-08-22T13:57:26.308Z,3.77
2017-08-22T13:59:54.817Z,4.20
2017-08-22T14:02:22.413Z,3.60
2017-08-22T14:04:50.038Z,4.33
2017-08-22T14:07:17.607Z,4.20
2017-08-22T14:09:45.252Z,4.00
2017-08-22T14:12:12.850Z,4.07
2017-08-22T14:14:40.518Z,4.50
2017-08-22T14:17:08.102Z,3.50
2017-08-22T14:19:35.732Z,4.20
2017-08-22T14:22:03.411Z,3.80
2017-08-22T14:24:31.011Z,3.70
2017-08-22T14:26:58.636Z,4.00
2017-08-22T14:29:26.245Z,4.23
2017-08-22T14:31:53.890Z,4.60
2017-08-22T14:34:21.486Z,4.07
2017-08-22T14:36:49.086Z,4.03
2017-08-22T14:39:16.683Z,3.90
2017-08-22T14:41:44.293Z,4.47
2017-08-22T14:44:11.894Z,4.20
2017-08-22T14:46:39.502Z,3.97
2017-08-22T14:49:07.077Z,4.03
2017-08-22T14:51:34.667Z,3.97
2017-08-22T14:54:02.289Z,4.67
2017-08-22T14:56:29.881Z,4.07
2017-08-22T14:58:57.510Z,4.00
2017-08-22T15:01:25.114Z,4.00
2017-08-22T15:03:52.722Z,4.27
2017-08-22T15:06:20.328Z,4.80
2017-08-22T15:08:47.972Z,5.00
2017-08-22T15:11:15.577Z,5.30
2017-08-22T15:13:43.208Z,5.60
2017-08-22T15:16:11.563Z,4.67
2017-08-22T15:18:39.152Z,4.20
2017-08-22T15:21:06.792Z,5.47
2017-08-22T15:23:34.421Z,5.80
2017-08-22T15:26:02.107Z,5.70
2017-08-22T15:28:29.721Z,5.33
2017-08-22T15:30:57.320Z,4.70
2017-08-22T15:33:24.997Z,4.60
2017-08-22T15:35:52.618Z,4.20
2017-08-22T15:38:20.210Z,4.23
2017-08-22T15:40:47.866Z,4.13
2017-08-22T15:43:15.447Z,4.97
2017-08-22T15:45:43.090Z,5.20
2017-08-22T15:48:10.717Z,4.53
2017-08-22T15:50:38.338Z,5.13
2017-08-22T15:53:05.939Z,5.37
2017-08-22T15:55:33.559Z,5.00
2017-08-22T15:58:01.195Z,5.23
2017-08-22T16:00:28.855Z,4.50
2017-08-22T16:02:56.456Z,5.00
2017-08-22T16:05:24.132Z,4.50
2017-08-22T16:07:51.749Z,5.10
2017-08-22T16:10:19.365Z,5.03
2017-08-22T16:12:47.045Z,5.57
2017-08-22T16:15:14.661Z,4.73
2017-08-22T16:17:42.266Z,5.40
2017-08-22T16:20:09.912Z,4.70
2017-08-22T16:22:37.488Z,4.70
2017-08-22T16:25:05.083Z,4.93
2017-08-22T16:27:32.704Z,5.23
2017-08-22T16:30:00.374Z,4.50
2017-08-22T16:32:27.961Z,4.80
2017-08-22T16:34:55.531Z,5.33
2017-08-22T16:37:23.174Z,5.53
2017-08-22T16:39:50.768Z,5.63
2017-08-22T16:42:18.340Z,6.07
2017-08-22T16:44:46.043Z,5.70
2017-08-22T16:47:13.646Z,4.83
2017-08-22T16:49:41.285Z,5.63
2017-08-22T16:52:08.936Z,5.33
2017-08-22T16:54:36.523Z,5.50
2017-08-22T16:57:04.156Z,5.90
2017-08-22T16:59:31.787Z,5.30
2017-08-22T17:01:59.464Z,5.40
2017-08-22T17:04:27.082Z,5.70
2017-08-22T17:06:54.782Z,5.23
2017-08-22T17:09:22.424Z,6.20
2017-08-22T17:11:50.042Z,5.67
2017-08-22T17:14:17.625Z,6.23
2017-08-22T17:16:45.302Z,6.73
2017-08-22T17:19:12.940Z,6.90
2017-08-22T17:21:40.564Z,6.40
2017-08-22T17:24:08.269Z,6.37
2017-08-22T17:26:35.956Z,5.53
2017-08-22T17:29:03.578Z,5.63
2017-08-22T17:31:31.212Z,6.17
2017-08-22T17:33:58.832Z,6.50
2017-08-22T17:36:26.481Z,5.70
2017-08-22T17:38:54.104Z,5.43
2017-08-22T17:41:21.800Z,4.90
2017-08-22T17:43:49.388Z,5.10
2017-08-22T17:46:17.003Z,5.20
2017-08-22T17:48:44.789Z,5.20
2017-08-22T17:51:12.485Z,4.60
2017-08-22T17:53:40.078Z,5.10
2017-08-22T17:56:07.672Z,5.70
2017-08-22T17:58:35.312Z,5.27
2017-08-22T18:01:02.960Z,5.47
2017-08-22T18:03:30.532Z,6.10
2017-08-22T18:05:58.184Z,4.60
2017-08-22T18:08:25.808Z,5.53
2017-08-22T18:10:53.425Z,4.90
2017-08-22T18:13:21.061Z,5.10
2017-08-22T18:15:48.654Z,5.30
2017-08-22T18:18:16.282Z,4.90
2017-08-22T18:20:43.875Z,5.33
2017-08-22T18:23:11.555Z,5.10
2017-08-22T18:25:39.156Z,5.50
2017-08-22T18:28:06.761Z,5.30
2017-08-22T18:30:34.435Z,4.20
2017-08-22T18:33:02.045Z,5.20
2017-08-22T18:35:29.665Z,5.27
2017-08-22T18:37:57.276Z,5.80
2017-08-22T18:40:24.885Z,5.13
2017-08-22T18:42:52.534Z,4.90
2017-08-22T18:45:20.161Z,5.87
2017-08-22T18:47:47.775Z,5.70
2017-08-22T18:50:15.421Z,5.70
2017-08-22T18:52:43.058Z,5.47
2017-08-22T18:55:10.737Z,4.60
2017-08-22T18:57:38.346Z,5.30
2017-08-22T19:00:06.048Z,5.27
2017-08-22T19:02:33.682Z,5.67
2017-08-22T19:05:01.351Z,5.47
2017-08-22T19:07:28.983Z,5.50
2017-08-22T19:09:56.649Z,5.60
2017-08-22T19:12:24.304Z,5.73
2017-08-22T19:14:51.904Z,5.40
2017-08-22T19:17:19.581Z,5.63
2017-08-22T19:19:47.204Z,5.20
2017-08-22T19:22:14.841Z,5.93
2017-08-22T19:24:42.530Z,5.10
2017-08-22T19:27:10.212Z,5.77
2017-08-22T19:29:37.834Z,6.20
2017-08-22T19:32:05.472Z,6.20
2017-08-22T19:34:33.097Z,5.37
2017-08-22T19:37:00.713Z,5.80
2017-08-22T19:39:28.360Z,5.67
2017-08-22T19:41:55.976Z,5.23
2017-08-22T19:44:23.679Z,6.07
2017-08-22T19:46:51.296Z,6.27
2017-08-22T19:49:18.912Z,5.77
2017-08-22T19:51:46.600Z,5.87
2017-08-22T19:54:14.247Z,5.50
2017-08-22T19:56:41.924Z,6.00
2017-08-22T19:59:09.532Z,6.40
2017-08-22T20:01:37.231Z,7.27
2017-08-22T20:04:04.904Z,6.00
2017-08-22T20:06:32.548Z,6.70
2017-08-22T20:09:00.175Z,6.80
2017-08-22T20:11:27.804Z,6.70
2017-08-22T20:13:55.422Z,7.50
2017-08-22T20:16:23.053Z,6.80
2017-08-22T20:18:50.684Z,7.43
2017-08-22T20:21:18.272Z,7.73
2017-08-22T20:23:45.904Z,7.90
2017-08-22T20:26:13.543Z,8.23
2017-08-22T20:28:41.181Z,8.43
2017-08-22T20:31:08.868Z,9.03
2017-08-22T20:33:36.551Z,9.00
2017-08-22T20:36:04.170Z,9.47
2017-08-22T20:38:31.779Z,9.50
2017-08-22T20:40:59.427Z,9.07
2017-08-22T20:43:27.035Z,9.93
2017-08-22T20:45:54.690Z,10.03
2017-08-22T20:48:22.364Z,9.80
2017-08-22T20:50:49.961Z,10.70
2017-08-22T20:53:17.584Z,9.80
2017-08-22T20:55:45.324Z,10.20
2017-08-22T20:58:12.939Z,9.63
2017-08-22T21:00:40.534Z,11.23
2017-08-22T21:03:08.213Z,10.13
2017-08-22T21:05:35.888Z,11.40
2017-08-22T21:08:03.651Z,11.00
2017-08-22T21:10:31.295Z,10.47
2017-08-22T21:12:59.007Z,11.40
2017-08-22T21:15:26.670Z,12.80
2017-08-22T21:17:54.401Z,12.30
2017-08-22T21:20:22.063Z,13.37
2017-08-22T21:22:49.690Z,12.30
2017-08-22T21:25:17.345Z,13.20
2017-08-22T21:27:44.955Z,13.30
2017-08-22T21:30:12.600Z,12.90
2017-08-22T21:32:40.240Z,13.73
2017-08-22T21:35:07.867Z,13.27
2017-08-22T21:37:35.504Z,12.80
2017-08-22T21:40:03.148Z,13.90
2017-08-22T21:42:30.749Z,14.10
2017-08-22T21:44:58.404Z,14.40
2017-08-22T21:47:26.066Z,14.50
2017-08-22T21:49:54.440Z,13.70
2017-08-22T21:52:22.098Z,14.70
2017-08-22T21:54:49.754Z,14.80
2017-08-22T21:57:17.366Z,13.47
2017-08-22T21:59:45.004Z,14.60
2017-08-22T22:02:12.652Z,12.67
2017-08-22T22:04:40.265Z,13.43
2017-08-22T22:07:07.872Z,13.90
2017-08-22T22:09:35.585Z,13.53
2017-08-22T22:12:03.248Z,13.40
2017-08-22T22:14:30.946Z,14.43
2017-08-22T22:16:58.663Z,14.77
2017-08-22T22:19:26.266Z,13.93
2017-08-22T22:21:53.888Z,14.70
2017-08-22T22:24:21.580Z,14.93
2017-08-22T22:26:49.215Z,13.30
2017-08-22T22:29:16.824Z,14.67
2017-08-22T22:31:44.492Z,13.10
2017-08-22T22:34:12.152Z,14.70
2017-08-22T22:36:39.755Z,15.20
2017-08-22T22:39:07.480Z,13.50
2017-08-22T22:41:35.062Z,14.03
2017-08-22T22:44:02.748Z,15.40
2017-08-22T22:46:30.441Z,14.07
2017-08-22T22:48:58.070Z,13.33
2017-08-22T22:51:25.664Z,14.83
2017-08-22T22:53:53.284Z,14.80
2017-08-22T22:56:20.908Z,14.90
2017-08-22T22:58:48.506Z,14.60
2017-08-22T23:01:16.163Z,15.60
2017-08-22T23:03:43.810Z,15.10
2017-08-22T23:06:11.461Z,14.57
2017-08-22T23:08:39.098Z,14.90
2017-08-22T23:11:06.786Z,15.43
2017-08-22T23:13:34.415Z,15.77
2017-08-22T23:16:02.104Z,15.03
2017-08-22T23:18:29.766Z,14.63
2017-08-22T23:20:57.373Z,15.73
2017-08-22T23:23:25.006Z,14.07
2017-08-22T23:25:52.612Z,14.90
2017-08-22T23:28:20.230Z,15.47
2017-08-22T23:30:47.974Z,14.73
2017-08-22T23:33:15.575Z,15.60
2017-08-22T23:35:43.180Z,14.57
2017-08-22T23:38:10.842Z,15.77
2017-08-22T23:40:38.446Z,14.50
2017-08-22T23:43:06.046Z,16.17
2017-08-22T23:45:33.721Z,16.07
2017-08-22T23:48:01.338Z,15.57
2017-08-22T23:50:28.907Z,15.83
2017-08-22T23:52:56.530Z,16.53
2017-08-22T23:55:24.134Z,17.53
2017-08-22T23:57:51.713Z,15.57
